sensor_id;sensor_type;location;lat;lon;timestamp;temperature;humidity
2647;DHT22;1333;50.958;6.770;2022-10-04T00:07:14;10.30;99.90
2647;DHT22;1333;50.958;6.770;2022-10-04T00:09:53;10.30;99.90
2647;DHT22;1333;50.958;6.770;2022-10-04T00:12:27;10.40;99.90
2647;DHT22;1333;50.958;6.770;2022-10-04T00:15:00;10.50;99.90
2647;DHT22;1333;50.958;6.770;2022-10-04T00:17:29;10.50;99.90
2647;DHT22;1333;50.958;6.770;2022-10-04T00:19:56;10.50;99.90
2647;DHT22;1333;50.958;6.770;2022-10-04T00:22:27;10.50;99.90
2647;DHT22;1333;50.958;6.770;2022-10-04T00:27:33;10.50;99.90
2647;DHT22;1333;50.958;6.770;2022-10-04T00:37:56;10.60;99.90
2647;DHT22;1333;50.958;6.770;2022-10-04T00:40:24;10.50;99.90
2647;DHT22;1333;50.958;6.770;2022-10-04T00:43:04;10.50;99.90
2647;DHT22;1333;50.958;6.770;2022-10-04T00:45:45;10.40;99.90
2647;DHT22;1333;50.958;6.770;2022-10-04T00:51:43;10.50;99.90
2647;DHT22;1333;50.958;6.770;2022-10-04T00:53:54;10.50;99.90
2647;DHT22;1333;50.958;6.770;2022-10-04T01:01:30;10.50;99.90
2647;DHT22;1333;50.958;6.770;2022-10-04T01:04:00;10.40;99.90
2647;DHT22;1333;50.958;6.770;2022-10-04T01:06:28;10.50;99.90
2647;DHT22;1333;50.958;6.770;2022-10-04T01:08:55;10.50;99.90
2647;DHT22;1333;50.958;6.770;2022-10-04T01:11:29;10.50;99.90
2647;DHT22;1333;50.958;6.770;2022-10-04T01:16:32;10.50;99.90
2647;DHT22;1333;50.958;6.770;2022-10-04T01:24:35;10.40;99.90
2647;DHT22;1333;50.958;6.770;2022-10-04T01:27:01;10.40;99.90
2647;DHT22;1333;50.958;6.770;2022-10-04T01:29:28;10.40;99.90
2647;DHT22;1333;50.958;6.770;2022-10-04T01:31:57;10.40;99.90
2647;DHT22;1333;50.958;6.770;2022-10-04T01:34:25;10.40;99.90
2647;DHT22;1333;50.958;6.770;2022-10-04T01:36:54;10.40;99.90
2647;DHT22;1333;50.958;6.770;2022-10-04T01:39:22;10.40;99.90
2647;DHT22;1333;50.958;6.770;2022-10-04T01:44:31;10.50;99.90
2647;DHT22;1333;50.958;6.770;2022-10-04T01:47:04;10.50;99.90
2647;DHT22;1333;50.958;6.770;2022-10-04T01:49:35;10.50;99.90
2647;DHT22;1333;50.958;6.770;2022-10-04T01:52:13;10.50;99.90
2647;DHT22;1333;50.958;6.770;2022-10-04T01:54:43;10.60;99.90
2647;DHT22;1333;50.958;6.770;2022-10-04T01:57:14;10.60;99.90
2647;DHT22;1333;50.958;6.770;2022-10-04T02:00:07;10.60;99.90
2647;DHT22;1333;50.958;6.770;2022-10-04T02:02:52;10.70;99.90
2647;DHT22;1333;50.958;6.770;2022-10-04T02:05:30;10.70;99.90
2647;DHT22;1333;50.958;6.770;2022-10-04T02:08:02;10.70;99.90
2647;DHT22;1333;50.958;6.770;2022-10-04T02:10:29;10.60;99.90
2647;DHT22;1333;50.958;6.770;2022-10-04T02:12:58;10.60;99.90
2647;DHT22;1333;50.958;6.770;2022-10-04T02:15:25;10.50;99.90
2647;DHT22;1333;50.958;6.770;2022-10-04T02:17:51;10.50;99.90
2647;DHT22;1333;50.958;6.770;2022-10-04T02:20:21;10.50;99.90
2647;DHT22;1333;50.958;6.770;2022-10-04T02:22:50;10.40;99.90
2647;DHT22;1333;50.958;6.770;2022-10-04T02:25:18;10.30;99.90
2647;DHT22;1333;50.958;6.770;2022-10-04T02:27:45;10.20;99.90
2647;DHT22;1333;50.958;6.770;2022-10-04T02:30:11;10.20;99.90
2647;DHT22;1333;50.958;6.770;2022-10-04T02:32:40;10.20;99.90
2647;DHT22;1333;50.958;6.770;2022-10-04T02:35:23;10.10;99.90
2647;DHT22;1333;50.958;6.770;2022-10-04T02:40:31;10.00;99.90
2647;DHT22;1333;50.958;6.770;2022-10-04T02:43:08;10.10;99.90
2647;DHT22;1333;50.958;6.770;2022-10-04T02:48:36;10.00;99.90
2647;DHT22;1333;50.958;6.770;2022-10-04T02:51:38;9.90;99.90
2647;DHT22;1333;50.958;6.770;2022-10-04T02:54:26;9.90;99.90
2647;DHT22;1333;50.958;6.770;2022-10-04T02:56:55;9.90;99.90
2647;DHT22;1333;50.958;6.770;2022-10-04T02:59:21;9.90;99.90
2647;DHT22;1333;50.958;6.770;2022-10-04T03:01:58;9.90;99.90
2647;DHT22;1333;50.958;6.770;2022-10-04T03:04:37;9.90;99.90
2647;DHT22;1333;50.958;6.770;2022-10-04T03:07:05;9.90;99.90
2647;DHT22;1333;50.958;6.770;2022-10-04T03:09:33;9.90;99.90
2647;DHT22;1333;50.958;6.770;2022-10-04T03:12:02;9.90;99.90
2647;DHT22;1333;50.958;6.770;2022-10-04T03:14:29;9.80;99.90
2647;DHT22;1333;50.958;6.770;2022-10-04T03:16:58;9.80;99.90
2647;DHT22;1333;50.958;6.770;2022-10-04T03:19:26;9.80;99.90
2647;DHT22;1333;50.958;6.770;2022-10-04T03:21:57;9.90;99.90
2647;DHT22;1333;50.958;6.770;2022-10-04T03:24:32;9.80;99.90
2647;DHT22;1333;50.958;6.770;2022-10-04T03:27:02;9.70;99.90
2647;DHT22;1333;50.958;6.770;2022-10-04T03:29:31;9.70;99.90
2647;DHT22;1333;50.958;6.770;2022-10-04T03:32:00;9.70;99.90
2647;DHT22;1333;50.958;6.770;2022-10-04T03:34:37;9.70;99.90
2647;DHT22;1333;50.958;6.770;2022-10-04T03:37:10;9.70;99.90
2647;DHT22;1333;50.958;6.770;2022-10-04T03:39:45;9.70;99.90
2647;DHT22;1333;50.958;6.770;2022-10-04T03:42:15;9.70;99.90
2647;DHT22;1333;50.958;6.770;2022-10-04T03:44:43;9.70;99.90
2647;DHT22;1333;50.958;6.770;2022-10-04T03:47:15;9.60;99.90
2647;DHT22;1333;50.958;6.770;2022-10-04T03:49:43;9.60;99.90
2647;DHT22;1333;50.958;6.770;2022-10-04T03:52:19;9.60;99.90
2647;DHT22;1333;50.958;6.770;2022-10-04T03:54:47;9.50;99.90
2647;DHT22;1333;50.958;6.770;2022-10-04T03:57:13;9.50;99.90
2647;DHT22;1333;50.958;6.770;2022-10-04T03:59:40;9.40;99.90
2647;DHT22;1333;50.958;6.770;2022-10-04T04:07:42;9.50;99.90
2647;DHT22;1333;50.958;6.770;2022-10-04T04:10:28;9.40;99.90
2647;DHT22;1333;50.958;6.770;2022-10-04T04:15:46;9.30;99.90
2647;DHT22;1333;50.958;6.770;2022-10-04T04:18:19;9.30;99.90
2647;DHT22;1333;50.958;6.770;2022-10-04T04:20:48;9.20;99.90
2647;DHT22;1333;50.958;6.770;2022-10-04T04:31:27;9.20;99.90
2647;DHT22;1333;50.958;6.770;2022-10-04T04:34:03;9.20;99.90
2647;DHT22;1333;50.958;6.770;2022-10-04T04:36:37;9.10;99.90
2647;DHT22;1333;50.958;6.770;2022-10-04T04:39:21;9.10;99.90
2647;DHT22;1333;50.958;6.770;2022-10-04T04:44:27;9.10;99.90
2647;DHT22;1333;50.958;6.770;2022-10-04T04:46:53;9.00;99.90
2647;DHT22;1333;50.958;6.770;2022-10-04T04:49:21;9.00;99.90
2647;DHT22;1333;50.958;6.770;2022-10-04T04:51:49;9.00;99.90
2647;DHT22;1333;50.958;6.770;2022-10-04T04:54:21;9.10;99.90
2647;DHT22;1333;50.958;6.770;2022-10-04T04:56:49;9.10;99.90
2647;DHT22;1333;50.958;6.770;2022-10-04T04:59:16;9.10;99.90
2647;DHT22;1333;50.958;6.770;2022-10-04T05:01:44;9.00;99.90
2647;DHT22;1333;50.958;6.770;2022-10-04T05:06:44;9.00;99.90
2647;DHT22;1333;50.958;6.770;2022-10-04T05:09:36;9.00;99.90
2647;DHT22;1333;50.958;6.770;2022-10-04T05:12:26;9.10;99.90
2647;DHT22;1333;50.958;6.770;2022-10-04T05:14:52;9.10;99.90
2647;DHT22;1333;50.958;6.770;2022-10-04T05:17:28;9.10;99.90
2647;DHT22;1333;50.958;6.770;2022-10-04T05:19:58;9.20;99.90
2647;DHT22;1333;50.958;6.770;2022-10-04T05:22:25;9.10;99.90
2647;DHT22;1333;50.958;6.770;2022-10-04T05:24:54;9.20;99.90
2647;DHT22;1333;50.958;6.770;2022-10-04T05:27:29;9.20;99.90
2647;DHT22;1333;50.958;6.770;2022-10-04T05:35:18;9.20;99.90
2647;DHT22;1333;50.958;6.770;2022-10-04T05:42:53;9.10;99.90
2647;DHT22;1333;50.958;6.770;2022-10-04T05:45:25;9.10;99.90
2647;DHT22;1333;50.958;6.770;2022-10-04T05:47:55;9.20;99.90
2647;DHT22;1333;50.958;6.770;2022-10-04T05:50:37;9.10;99.90
2647;DHT22;1333;50.958;6.770;2022-10-04T05:53:44;9.10;99.90
2647;DHT22;1333;50.958;6.770;2022-10-04T05:58:58;9.10;99.90
2647;DHT22;1333;50.958;6.770;2022-10-04T06:07:00;9.10;99.90
2647;DHT22;1333;50.958;6.770;2022-10-04T06:15:19;9.10;99.90
2647;DHT22;1333;50.958;6.770;2022-10-04T06:23:14;9.20;99.90
2647;DHT22;1333;50.958;6.770;2022-10-04T06:25:50;9.30;99.90
2647;DHT22;1333;50.958;6.770;2022-10-04T06:28:23;9.30;99.90
2647;DHT22;1333;50.958;6.770;2022-10-04T06:34:16;9.40;99.90
2647;DHT22;1333;50.958;6.770;2022-10-04T06:48:21;9.70;99.90
2647;DHT22;1333;50.958;6.770;2022-10-04T06:56:42;10.10;99.90
2647;DHT22;1333;50.958;6.770;2022-10-04T07:01:55;10.30;99.90
2647;DHT22;1333;50.958;6.770;2022-10-04T07:10:00;10.80;99.90
2647;DHT22;1333;50.958;6.770;2022-10-04T07:12:28;10.90;99.90
2647;DHT22;1333;50.958;6.770;2022-10-04T07:15:00;11.10;99.90
2647;DHT22;1333;50.958;6.770;2022-10-04T07:17:31;11.20;99.90
2647;DHT22;1333;50.958;6.770;2022-10-04T07:19:59;11.30;99.90
2647;DHT22;1333;50.958;6.770;2022-10-04T07:30:01;11.80;99.90
2647;DHT22;1333;50.958;6.770;2022-10-04T07:32:34;11.90;99.90
2647;DHT22;1333;50.958;6.770;2022-10-04T07:37:57;12.20;99.90
2647;DHT22;1333;50.958;6.770;2022-10-04T07:40:27;12.40;99.90
2647;DHT22;1333;50.958;6.770;2022-10-04T07:42:59;12.50;99.90
2647;DHT22;1333;50.958;6.770;2022-10-04T07:45:33;12.60;99.90
2647;DHT22;1333;50.958;6.770;2022-10-04T07:53:38;13.00;99.90
2647;DHT22;1333;50.958;6.770;2022-10-04T07:56:10;13.00;99.90
2647;DHT22;1333;50.958;6.770;2022-10-04T08:01:58;13.20;99.90
2647;DHT22;1333;50.958;6.770;2022-10-04T08:04:40;13.30;99.90
2647;DHT22;1333;50.958;6.770;2022-10-04T08:07:57;13.30;99.90
2647;DHT22;1333;50.958;6.770;2022-10-04T08:10:39;13.40;99.90
2647;DHT22;1333;50.958;6.770;2022-10-04T08:13:27;13.40;99.90
2647;DHT22;1333;50.958;6.770;2022-10-04T08:16:09;13.80;99.90
2647;DHT22;1333;50.958;6.770;2022-10-04T08:18:58;14.30;99.90
2647;DHT22;1333;50.958;6.770;2022-10-04T08:21:34;14.90;99.90
2647;DHT22;1333;50.958;6.770;2022-10-04T08:24:06;15.50;99.90
2647;DHT22;1333;50.958;6.770;2022-10-04T08:29:43;16.80;99.90
2647;DHT22;1333;50.958;6.770;2022-10-04T08:35:14;18.20;99.90
2647;DHT22;1333;50.958;6.770;2022-10-04T08:40:56;19.80;99.90
2647;DHT22;1333;50.958;6.770;2022-10-04T08:52:41;23.10;97.40
2647;DHT22;1333;50.958;6.770;2022-10-04T09:09:48;27.00;66.30
2647;DHT22;1333;50.958;6.770;2022-10-04T09:12:44;27.70;59.40
2647;DHT22;1333;50.958;6.770;2022-10-04T09:15:54;28.30;57.40
2647;DHT22;1333;50.958;6.770;2022-10-04T09:18:56;29.00;56.60
2647;DHT22;1333;50.958;6.770;2022-10-04T09:22:13;29.40;54.00
2647;DHT22;1333;50.958;6.770;2022-10-04T09:37:46;31.70;50.00
2647;DHT22;1333;50.958;6.770;2022-10-04T09:40:35;32.50;47.80
2647;DHT22;1333;50.958;6.770;2022-10-04T09:43:26;32.60;45.60
2647;DHT22;1333;50.958;6.770;2022-10-04T09:52:12;32.40;45.30
2647;DHT22;1333;50.958;6.770;2022-10-04T10:00:56;33.60;44.90
2647;DHT22;1333;50.958;6.770;2022-10-04T10:09:28;33.30;43.30
2647;DHT22;1333;50.958;6.770;2022-10-04T10:20:52;34.30;43.20
2647;DHT22;1333;50.958;6.770;2022-10-04T10:27:29;33.80;42.20
2647;DHT22;1333;50.958;6.770;2022-10-04T10:37:28;34.00;42.20
2647;DHT22;1333;50.958;6.770;2022-10-04T10:43:14;34.20;42.80
2647;DHT22;1333;50.958;6.770;2022-10-04T10:46:06;35.30;43.00
2647;DHT22;1333;50.958;6.770;2022-10-04T10:49:18;36.20;40.80
2647;DHT22;1333;50.958;6.770;2022-10-04T11:00:19;36.80;38.40
2647;DHT22;1333;50.958;6.770;2022-10-04T11:06:14;37.60;37.70
2647;DHT22;1333;50.958;6.770;2022-10-04T11:26:35;36.40;38.20
2647;DHT22;1333;50.958;6.770;2022-10-04T11:43:05;38.20;36.10
2647;DHT22;1333;50.958;6.770;2022-10-04T11:46:06;38.00;37.10
2647;DHT22;1333;50.958;6.770;2022-10-04T11:54:10;37.70;36.00
2647;DHT22;1333;50.958;6.770;2022-10-04T11:57:15;38.00;36.50
2647;DHT22;1333;50.958;6.770;2022-10-04T12:00:03;38.40;36.50
2647;DHT22;1333;50.958;6.770;2022-10-04T12:16:36;37.60;37.30
2647;DHT22;1333;50.958;6.770;2022-10-04T12:19:12;38.90;36.80
2647;DHT22;1333;50.958;6.770;2022-10-04T12:21:56;39.00;35.80
2647;DHT22;1333;50.958;6.770;2022-10-04T12:30:21;40.40;34.90
2647;DHT22;1333;50.958;6.770;2022-10-04T12:33:00;40.50;34.50
2647;DHT22;1333;50.958;6.770;2022-10-04T12:35:33;40.50;34.40
2647;DHT22;1333;50.958;6.770;2022-10-04T12:41:02;40.10;33.30
2647;DHT22;1333;50.958;6.770;2022-10-04T12:44:05;40.20;34.30
2647;DHT22;1333;50.958;6.770;2022-10-04T12:46:55;40.40;33.90
2647;DHT22;1333;50.958;6.770;2022-10-04T12:50:00;40.90;34.20
2647;DHT22;1333;50.958;6.770;2022-10-04T12:52:38;41.30;34.20
2647;DHT22;1333;50.958;6.770;2022-10-04T12:55:40;41.60;33.10
2647;DHT22;1333;50.958;6.770;2022-10-04T13:00:44;41.90;31.80
2647;DHT22;1333;50.958;6.770;2022-10-04T13:06:26;41.50;33.00
2647;DHT22;1333;50.958;6.770;2022-10-04T13:09:14;40.50;32.00
2647;DHT22;1333;50.958;6.770;2022-10-04T13:12:02;40.20;33.70
2647;DHT22;1333;50.958;6.770;2022-10-04T13:14:38;40.70;33.80
2647;DHT22;1333;50.958;6.770;2022-10-04T13:28:50;40.50;32.80
2647;DHT22;1333;50.958;6.770;2022-10-04T13:37:05;40.10;34.10
2647;DHT22;1333;50.958;6.770;2022-10-04T13:42:35;39.50;33.20
2647;DHT22;1333;50.958;6.770;2022-10-04T13:51:09;39.50;34.40
2647;DHT22;1333;50.958;6.770;2022-10-04T13:53:46;39.00;34.60
2647;DHT22;1333;50.958;6.770;2022-10-04T13:56:57;38.60;33.80
2647;DHT22;1333;50.958;6.770;2022-10-04T13:59:49;37.80;34.70
2647;DHT22;1333;50.958;6.770;2022-10-04T14:02:54;37.70;35.70
2647;DHT22;1333;50.958;6.770;2022-10-04T14:08:42;38.10;35.80
2647;DHT22;1333;50.958;6.770;2022-10-04T14:30:33;33.80;41.30
2647;DHT22;1333;50.958;6.770;2022-10-04T14:39:23;35.10;40.30
2647;DHT22;1333;50.958;6.770;2022-10-04T14:56:19;34.80;39.50
2647;DHT22;1333;50.958;6.770;2022-10-04T14:59:20;34.70;39.20
2647;DHT22;1333;50.958;6.770;2022-10-04T15:04:59;34.30;39.90
2647;DHT22;1333;50.958;6.770;2022-10-04T15:07:39;34.20;40.20
2647;DHT22;1333;50.958;6.770;2022-10-04T15:20:49;33.30;41.90
2647;DHT22;1333;50.958;6.770;2022-10-04T15:29:02;32.40;42.90
2647;DHT22;1333;50.958;6.770;2022-10-04T15:51:06;27.60;50.60
2647;DHT22;1333;50.958;6.770;2022-10-04T15:53:56;27.20;51.30
2647;DHT22;1333;50.958;6.770;2022-10-04T15:59:28;26.40;52.80
2647;DHT22;1333;50.958;6.770;2022-10-04T16:05:13;25.50;55.10
2647;DHT22;1333;50.958;6.770;2022-10-04T16:07:53;24.90;56.60
2647;DHT22;1333;50.958;6.770;2022-10-04T16:15:43;23.80;63.50
2647;DHT22;1333;50.958;6.770;2022-10-04T16:18:49;23.50;69.70
2647;DHT22;1333;50.958;6.770;2022-10-04T16:21:32;23.20;80.10
2647;DHT22;1333;50.958;6.770;2022-10-04T16:29:32;22.30;99.90
2647;DHT22;1333;50.958;6.770;2022-10-04T16:32:28;22.00;99.90
2647;DHT22;1333;50.958;6.770;2022-10-04T16:34:55;21.70;99.90
2647;DHT22;1333;50.958;6.770;2022-10-04T16:40:15;21.20;99.90
2647;DHT22;1333;50.958;6.770;2022-10-04T16:51:04;20.10;99.90
2647;DHT22;1333;50.958;6.770;2022-10-04T17:11:00;18.40;99.90
2647;DHT22;1333;50.958;6.770;2022-10-04T17:16:13;17.90;99.90
2647;DHT22;1333;50.958;6.770;2022-10-04T17:19:14;17.70;99.90
2647;DHT22;1333;50.958;6.770;2022-10-04T17:22:01;17.50;99.90
2647;DHT22;1333;50.958;6.770;2022-10-04T17:38:07;16.70;99.90
2647;DHT22;1333;50.958;6.770;2022-10-04T17:46:53;16.20;99.90
2647;DHT22;1333;50.958;6.770;2022-10-04T17:49:36;16.00;99.90
2647;DHT22;1333;50.958;6.770;2022-10-04T17:52:26;16.00;99.90
2647;DHT22;1333;50.958;6.770;2022-10-04T17:55:26;15.90;99.90
2647;DHT22;1333;50.958;6.770;2022-10-04T17:58:09;15.70;99.90
2647;DHT22;1333;50.958;6.770;2022-10-04T18:03:37;15.50;99.90
2647;DHT22;1333;50.958;6.770;2022-10-04T18:06:36;15.40;99.90
2647;DHT22;1333;50.958;6.770;2022-10-04T18:09:32;15.30;99.90
2647;DHT22;1333;50.958;6.770;2022-10-04T18:12:11;15.30;99.90
2647;DHT22;1333;50.958;6.770;2022-10-04T18:17:46;15.10;99.90
2647;DHT22;1333;50.958;6.770;2022-10-04T18:22:59;14.90;99.90
2647;DHT22;1333;50.958;6.770;2022-10-04T18:25:29;14.80;99.90
2647;DHT22;1333;50.958;6.770;2022-10-04T18:33:18;14.60;99.90
2647;DHT22;1333;50.958;6.770;2022-10-04T18:36:03;14.50;99.90
2647;DHT22;1333;50.958;6.770;2022-10-04T18:38:32;14.40;99.90
2647;DHT22;1333;50.958;6.770;2022-10-04T18:41:01;14.30;99.90
2647;DHT22;1333;50.958;6.770;2022-10-04T18:43:39;14.30;99.90
2647;DHT22;1333;50.958;6.770;2022-10-04T18:51:23;14.20;99.90
2647;DHT22;1333;50.958;6.770;2022-10-04T18:54:18;14.20;99.90
2647;DHT22;1333;50.958;6.770;2022-10-04T19:05:30;14.00;99.90
2647;DHT22;1333;50.958;6.770;2022-10-04T19:08:19;14.00;99.90
2647;DHT22;1333;50.958;6.770;2022-10-04T19:11:15;13.90;99.90
2647;DHT22;1333;50.958;6.770;2022-10-04T19:13:54;13.90;99.90
2647;DHT22;1333;50.958;6.770;2022-10-04T19:22:55;13.80;99.90
2647;DHT22;1333;50.958;6.770;2022-10-04T19:25:55;13.70;99.90
2647;DHT22;1333;50.958;6.770;2022-10-04T19:28:26;13.70;99.90
2647;DHT22;1333;50.958;6.770;2022-10-04T19:31:16;13.70;99.90
2647;DHT22;1333;50.958;6.770;2022-10-04T19:36:50;13.80;99.90
2647;DHT22;1333;50.958;6.770;2022-10-04T19:42:11;13.80;99.90
2647;DHT22;1333;50.958;6.770;2022-10-04T19:47:43;13.80;99.90
2647;DHT22;1333;50.958;6.770;2022-10-04T19:50:20;13.70;99.90
2647;DHT22;1333;50.958;6.770;2022-10-04T19:53:05;13.70;99.90
2647;DHT22;1333;50.958;6.770;2022-10-04T19:55:52;13.70;99.90
2647;DHT22;1333;50.958;6.770;2022-10-04T20:00:58;13.70;99.90
2647;DHT22;1333;50.958;6.770;2022-10-04T20:03:24;13.70;99.90
2647;DHT22;1333;50.958;6.770;2022-10-04T20:05:51;13.70;99.90
2647;DHT22;1333;50.958;6.770;2022-10-04T20:08:49;13.70;99.90
2647;DHT22;1333;50.958;6.770;2022-10-04T20:11:44;13.70;99.90
2647;DHT22;1333;50.958;6.770;2022-10-04T20:27:06;13.70;99.90
2647;DHT22;1333;50.958;6.770;2022-10-04T20:34:59;13.70;99.90
2647;DHT22;1333;50.958;6.770;2022-10-04T20:45:51;13.50;99.90
2647;DHT22;1333;50.958;6.770;2022-10-04T20:48:21;13.50;99.90
2647;DHT22;1333;50.958;6.770;2022-10-04T20:50:48;13.50;99.90
2647;DHT22;1333;50.958;6.770;2022-10-04T20:53:25;13.40;99.90
2647;DHT22;1333;50.958;6.770;2022-10-04T20:58:50;13.30;99.90
2647;DHT22;1333;50.958;6.770;2022-10-04T21:01:24;13.20;99.90
2647;DHT22;1333;50.958;6.770;2022-10-04T21:04:16;13.10;99.90
2647;DHT22;1333;50.958;6.770;2022-10-04T21:06:53;13.10;99.90
2647;DHT22;1333;50.958;6.770;2022-10-04T21:09:19;13.00;99.90
2647;DHT22;1333;50.958;6.770;2022-10-04T21:11:46;12.90;99.90
2647;DHT22;1333;50.958;6.770;2022-10-04T21:14:35;12.90;99.90
2647;DHT22;1333;50.958;6.770;2022-10-04T21:17:02;12.90;99.90
2647;DHT22;1333;50.958;6.770;2022-10-04T21:22:01;12.80;99.90
2647;DHT22;1333;50.958;6.770;2022-10-04T21:24:39;12.80;99.90
2647;DHT22;1333;50.958;6.770;2022-10-04T21:27:07;12.70;99.90
2647;DHT22;1333;50.958;6.770;2022-10-04T21:29:33;12.70;99.90
2647;DHT22;1333;50.958;6.770;2022-10-04T21:31:59;12.70;99.90
2647;DHT22;1333;50.958;6.770;2022-10-04T21:34:25;12.60;99.90
2647;DHT22;1333;50.958;6.770;2022-10-04T21:36:51;12.60;99.90
2647;DHT22;1333;50.958;6.770;2022-10-04T21:39:17;12.60;99.90
2647;DHT22;1333;50.958;6.770;2022-10-04T21:41:43;12.50;99.90
2647;DHT22;1333;50.958;6.770;2022-10-04T21:44:09;12.50;99.90
2647;DHT22;1333;50.958;6.770;2022-10-04T21:46:35;12.50;99.90
2647;DHT22;1333;50.958;6.770;2022-10-04T21:49:04;12.50;99.90
2647;DHT22;1333;50.958;6.770;2022-10-04T21:51:30;12.50;99.90
2647;DHT22;1333;50.958;6.770;2022-10-04T21:54:02;12.50;99.90
2647;DHT22;1333;50.958;6.770;2022-10-04T21:56:28;12.60;99.90
2647;DHT22;1333;50.958;6.770;2022-10-04T21:58:53;12.60;99.90
2647;DHT22;1333;50.958;6.770;2022-10-04T22:01:19;12.50;99.90
2647;DHT22;1333;50.958;6.770;2022-10-04T22:03:44;12.50;99.90
2647;DHT22;1333;50.958;6.770;2022-10-04T22:06:10;12.40;99.90
2647;DHT22;1333;50.958;6.770;2022-10-04T22:08:35;12.50;99.90
2647;DHT22;1333;50.958;6.770;2022-10-04T22:11:01;12.50;99.90
2647;DHT22;1333;50.958;6.770;2022-10-04T22:13:26;12.50;99.90
2647;DHT22;1333;50.958;6.770;2022-10-04T22:15:52;12.40;99.90
2647;DHT22;1333;50.958;6.770;2022-10-04T22:18:17;12.40;99.90
2647;DHT22;1333;50.958;6.770;2022-10-04T22:20:43;12.30;99.90
2647;DHT22;1333;50.958;6.770;2022-10-04T22:23:16;12.30;99.90
2647;DHT22;1333;50.958;6.770;2022-10-04T22:25:42;12.30;99.90
2647;DHT22;1333;50.958;6.770;2022-10-04T22:28:23;12.20;99.90
2647;DHT22;1333;50.958;6.770;2022-10-04T22:30:49;12.10;99.90
2647;DHT22;1333;50.958;6.770;2022-10-04T22:33:27;12.10;99.90
2647;DHT22;1333;50.958;6.770;2022-10-04T22:38:34;12.00;99.90
2647;DHT22;1333;50.958;6.770;2022-10-04T22:41:00;12.00;99.90
2647;DHT22;1333;50.958;6.770;2022-10-04T22:43:25;12.00;99.90
2647;DHT22;1333;50.958;6.770;2022-10-04T22:45:51;11.90;99.90
2647;DHT22;1333;50.958;6.770;2022-10-04T22:48:18;11.90;99.90
2647;DHT22;1333;50.958;6.770;2022-10-04T22:50:43;11.90;99.90
2647;DHT22;1333;50.958;6.770;2022-10-04T22:53:19;11.90;99.90
2647;DHT22;1333;50.958;6.770;2022-10-04T22:55:47;11.80;99.90
2647;DHT22;1333;50.958;6.770;2022-10-04T22:58:13;11.90;99.90
2647;DHT22;1333;50.958;6.770;2022-10-04T23:00:39;11.90;99.90
2647;DHT22;1333;50.958;6.770;2022-10-04T23:03:29;11.90;99.90
2647;DHT22;1333;50.958;6.770;2022-10-04T23:05:56;11.80;99.90
2647;DHT22;1333;50.958;6.770;2022-10-04T23:08:22;11.80;99.90
2647;DHT22;1333;50.958;6.770;2022-10-04T23:10:47;11.80;99.90
2647;DHT22;1333;50.958;6.770;2022-10-04T23:13:20;11.80;99.90
2647;DHT22;1333;50.958;6.770;2022-10-04T23:15:46;11.80;99.90
2647;DHT22;1333;50.958;6.770;2022-10-04T23:18:14;11.80;99.90
2647;DHT22;1333;50.958;6.770;2022-10-04T23:20:41;11.70;99.90
2647;DHT22;1333;50.958;6.770;2022-10-04T23:23:13;11.70;99.90
2647;DHT22;1333;50.958;6.770;2022-10-04T23:25:48;11.70;99.90
2647;DHT22;1333;50.958;6.770;2022-10-04T23:28:15;11.70;99.90
2647;DHT22;1333;50.958;6.770;2022-10-04T23:30:43;11.80;99.90
2647;DHT22;1333;50.958;6.770;2022-10-04T23:33:20;11.80;99.90
2647;DHT22;1333;50.958;6.770;2022-10-04T23:35:47;11.80;99.90
2647;DHT22;1333;50.958;6.770;2022-10-04T23:38:16;11.80;99.90
2647;DHT22;1333;50.958;6.770;2022-10-04T23:40:42;11.80;99.90
2647;DHT22;1333;50.958;6.770;2022-10-04T23:43:21;11.80;99.90
2647;DHT22;1333;50.958;6.770;2022-10-04T23:45:50;11.80;99.90
2647;DHT22;1333;50.958;6.770;2022-10-04T23:48:21;11.70;99.90
2647;DHT22;1333;50.958;6.770;2022-10-04T23:50:48;11.80;99.90
2647;DHT22;1333;50.958;6.770;2022-10-04T23:53:24;11.80;99.90
2647;DHT22;1333;50.958;6.770;2022-10-04T23:55:53;11.80;99.90
2647;DHT22;1333;50.958;6.770;2022-10-04T23:58:26;11.80;99.90
